createdAt,value
2022-10-10T00:01:37.416Z,5.40
2022-10-10T00:04:06.826Z,7.00
2022-10-10T00:06:35.830Z,5.63
2022-10-10T00:09:07.000Z,5.27
2022-10-10T00:11:36.288Z,6.13
2022-10-10T00:14:04.865Z,6.53
2022-10-10T00:16:33.033Z,7.30
2022-10-10T00:19:01.237Z,6.63
2022-10-10T00:21:29.468Z,7.77
2022-10-10T00:23:57.661Z,7.70
2022-10-10T00:26:27.170Z,8.23
2022-10-10T00:28:55.358Z,10.20
2022-10-10T00:31:23.589Z,9.90
2022-10-10T00:33:52.211Z,6.40
2022-10-10T00:36:21.393Z,7.93
2022-10-10T00:38:49.816Z,8.03
2022-10-10T00:41:18.143Z,12.70
2022-10-10T00:44:07.043Z,8.30
2022-10-10T00:46:35.430Z,6.20
2022-10-10T00:49:07.738Z,10.97
2022-10-10T00:51:35.865Z,10.83
2022-10-10T00:54:08.646Z,10.70
2022-10-10T00:56:44.923Z,11.30
2022-10-10T00:59:16.352Z,11.93
2022-10-10T01:01:44.738Z,11.70
2022-10-10T01:04:33.460Z,9.53
2022-10-10T01:07:04.020Z,8.93
2022-10-10T01:09:34.040Z,12.97
2022-10-10T01:12:16.582Z,10.43
2022-10-10T01:14:56.288Z,11.30
2022-10-10T01:17:33.853Z,10.17
2022-10-10T01:20:45.705Z,11.67
2022-10-10T01:23:58.832Z,9.50
2022-10-10T01:27:13.459Z,10.43
2022-10-10T01:29:48.753Z,12.13
2022-10-10T01:32:24.899Z,11.90
2022-10-10T01:35:15.899Z,10.40
2022-10-10T01:37:54.880Z,7.67
2022-10-10T01:40:32.828Z,6.50
2022-10-10T01:43:05.489Z,4.27
2022-10-10T01:45:35.442Z,7.80
2022-10-10T01:48:07.075Z,4.90
2022-10-10T01:50:52.485Z,5.37
2022-10-10T01:53:28.723Z,6.90
2022-10-10T01:56:07.060Z,4.77
2022-10-10T01:58:52.114Z,4.87
2022-10-10T02:01:28.359Z,6.07
2022-10-10T02:04:07.515Z,6.40
2022-10-10T02:06:43.448Z,10.43
2022-10-10T02:09:18.350Z,7.13
2022-10-10T02:11:48.956Z,8.53
2022-10-10T02:14:23.033Z,5.00
2022-10-10T02:16:56.580Z,4.00
2022-10-10T02:19:27.647Z,6.17
2022-10-10T02:21:57.316Z,3.90
2022-10-10T02:24:26.405Z,5.67
2022-10-10T02:27:02.024Z,3.70
2022-10-10T02:29:35.132Z,6.00
2022-10-10T02:32:12.053Z,7.37
2022-10-10T02:34:46.101Z,6.03
2022-10-10T02:37:17.255Z,5.70
2022-10-10T02:39:51.080Z,7.07
2022-10-10T02:42:22.667Z,6.70
2022-10-10T02:44:51.685Z,6.70
2022-10-10T02:47:21.248Z,5.50
2022-10-10T02:49:49.769Z,6.90
2022-10-10T02:52:18.910Z,6.43
2022-10-10T02:54:47.045Z,10.30
2022-10-10T02:57:15.337Z,7.63
2022-10-10T02:59:43.777Z,7.40
2022-10-10T03:02:12.397Z,7.83
2022-10-10T03:04:42.106Z,8.07
2022-10-10T03:07:10.424Z,5.07
2022-10-10T03:09:38.572Z,8.03
2022-10-10T03:12:07.013Z,6.10
2022-10-10T03:14:35.438Z,5.27
2022-10-10T03:17:03.616Z,5.67
2022-10-10T03:19:31.680Z,5.23
2022-10-10T03:22:01.164Z,5.17
2022-10-10T03:24:29.657Z,5.00
2022-10-10T03:26:57.776Z,5.10
2022-10-10T03:29:25.850Z,3.67
2022-10-10T03:31:53.942Z,3.77
2022-10-10T03:34:22.076Z,5.17
2022-10-10T03:36:50.166Z,4.40
2022-10-10T03:39:19.860Z,3.23
2022-10-10T03:41:50.271Z,2.93
2022-10-10T03:44:18.618Z,7.90
2022-10-10T03:46:46.900Z,5.00
2022-10-10T03:49:15.324Z,5.87
2022-10-10T03:51:43.538Z,6.00
2022-10-10T03:54:11.673Z,9.37
2022-10-10T03:56:41.132Z,9.50
2022-10-10T03:59:09.248Z,12.80
2022-10-10T04:01:37.495Z,10.50
2022-10-10T04:04:06.047Z,12.00
2022-10-10T04:06:34.216Z,8.67
2022-10-10T04:09:02.333Z,7.20
2022-10-10T04:11:30.396Z,7.50
2022-10-10T04:13:59.837Z,7.73
2022-10-10T04:16:27.932Z,5.50
2022-10-10T04:18:56.014Z,6.77
2022-10-10T04:21:24.140Z,8.80
2022-10-10T04:23:52.285Z,6.87
2022-10-10T04:26:20.428Z,6.43
2022-10-10T04:28:48.566Z,5.23
2022-10-10T04:31:18.063Z,6.83
2022-10-10T04:33:46.136Z,6.00
2022-10-10T04:36:14.335Z,8.57
2022-10-10T04:38:43.217Z,5.20
2022-10-10T04:41:11.472Z,6.43
2022-10-10T04:43:39.634Z,8.23
2022-10-10T04:46:07.795Z,7.07
2022-10-10T04:48:38.689Z,4.77
2022-10-10T04:51:07.237Z,6.23
2022-10-10T04:53:35.424Z,4.53
2022-10-10T04:56:03.948Z,5.23
2022-10-10T04:58:32.033Z,4.93
2022-10-10T05:01:00.241Z,8.90
2022-10-10T05:03:29.355Z,5.17
2022-10-10T05:05:58.819Z,4.40
2022-10-10T05:08:26.965Z,14.23
2022-10-10T05:10:55.062Z,5.30
2022-10-10T05:13:23.203Z,8.03
2022-10-10T05:15:53.170Z,5.90
2022-10-10T05:18:21.849Z,5.53
2022-10-10T05:20:50.231Z,3.73
2022-10-10T05:23:19.761Z,4.70
2022-10-10T05:25:51.032Z,4.53
2022-10-10T05:28:19.796Z,3.80
2022-10-10T05:30:47.955Z,5.10
2022-10-10T05:33:16.070Z,6.10
2022-10-10T05:35:44.272Z,3.90
2022-10-10T05:38:12.531Z,5.20
2022-10-10T05:40:43.012Z,5.83
2022-10-10T05:43:11.755Z,3.13
2022-10-10T05:45:39.845Z,5.17
2022-10-10T05:48:07.913Z,5.57
2022-10-10T05:50:40.587Z,5.77
2022-10-10T05:53:08.708Z,5.33
2022-10-10T05:55:36.835Z,4.67
2022-10-10T05:58:06.934Z,3.20
2022-10-10T06:00:36.481Z,6.97
2022-10-10T06:03:05.034Z,4.97
2022-10-10T06:05:33.196Z,7.20
2022-10-10T06:08:09.297Z,6.47
2022-10-10T06:10:41.379Z,5.37
2022-10-10T06:13:11.552Z,8.50
2022-10-10T06:15:39.906Z,4.33
2022-10-10T06:18:09.025Z,4.87
2022-10-10T06:20:37.848Z,5.17
2022-10-10T06:23:07.889Z,4.87
2022-10-10T06:25:41.826Z,3.60
2022-10-10T06:28:12.457Z,6.90
2022-10-10T06:30:45.104Z,4.60
2022-10-10T06:33:15.070Z,6.03
2022-10-10T06:35:45.308Z,5.90
2022-10-10T06:38:15.454Z,4.87
2022-10-10T06:40:44.977Z,5.20
2022-10-10T06:43:19.207Z,4.63
2022-10-10T06:45:51.787Z,7.63
2022-10-10T06:48:19.995Z,5.93
2022-10-10T06:50:58.624Z,5.07
2022-10-10T06:53:27.763Z,4.87
2022-10-10T06:55:56.608Z,6.33
2022-10-10T06:58:28.687Z,5.03
2022-10-10T07:00:59.899Z,3.37
2022-10-10T07:03:29.837Z,5.90
2022-10-10T07:06:01.260Z,7.07
2022-10-10T07:08:30.597Z,5.10
2022-10-10T07:10:58.777Z,5.30
2022-10-10T07:13:28.195Z,9.68
2022-10-10T07:15:56.498Z,7.47
2022-10-10T07:18:24.813Z,6.83
2022-10-10T07:20:57.301Z,2.93
2022-10-10T07:23:25.684Z,3.95
2022-10-10T07:25:59.265Z,4.85
2022-10-10T07:28:29.037Z,3.77
2022-10-10T07:31:02.268Z,8.10
2022-10-10T07:33:33.998Z,6.10
2022-10-10T07:36:02.108Z,4.22
2022-10-10T07:38:30.207Z,6.45
2022-10-10T07:40:58.623Z,4.50
2022-10-10T07:43:28.183Z,5.47
2022-10-10T07:45:58.483Z,6.30
2022-10-10T07:48:26.788Z,4.70
2022-10-10T07:50:54.911Z,7.32
2022-10-10T07:53:23.012Z,5.57
2022-10-10T07:55:51.291Z,5.07
2022-10-10T07:58:19.473Z,5.43
2022-10-10T08:00:48.875Z,5.53
2022-10-10T08:03:17.240Z,7.32
2022-10-10T08:05:46.928Z,7.75
2022-10-10T08:08:15.107Z,10.07
2022-10-10T08:10:45.361Z,8.02
2022-10-10T08:13:13.571Z,9.75
2022-10-10T08:15:42.131Z,8.07
2022-10-10T08:18:11.607Z,7.15
2022-10-10T08:20:40.142Z,9.15
2022-10-10T08:23:08.251Z,7.43
2022-10-10T08:25:36.738Z,8.18
2022-10-10T08:28:05.685Z,7.13
2022-10-10T08:30:33.912Z,9.25
2022-10-10T08:33:02.458Z,8.40
2022-10-10T08:35:31.890Z,8.25
2022-10-10T08:37:59.925Z,7.63
2022-10-10T08:40:28.774Z,7.75
2022-10-10T08:43:01.577Z,10.80
2022-10-10T08:45:33.814Z,8.95
2022-10-10T08:48:08.163Z,8.95
2022-10-10T08:50:43.738Z,10.10
2022-10-10T08:53:21.306Z,7.63
2022-10-10T08:55:50.632Z,10.07
2022-10-10T08:58:25.138Z,9.70
2022-10-10T09:01:04.139Z,7.70
2022-10-10T09:03:40.236Z,11.50
2022-10-10T09:06:28.045Z,8.10
2022-10-10T09:09:08.905Z,8.07
2022-10-10T09:11:54.212Z,7.93
2022-10-10T09:14:36.613Z,9.25
2022-10-10T09:17:19.352Z,9.55
2022-10-10T09:20:03.687Z,9.45
2022-10-10T09:22:40.860Z,9.23
2022-10-10T09:25:21.833Z,9.80
2022-10-10T09:28:01.813Z,9.00
2022-10-10T09:30:35.258Z,8.65
2022-10-10T09:33:24.643Z,8.18
2022-10-10T09:35:57.590Z,9.75
2022-10-10T09:38:36.323Z,11.48
2022-10-10T09:41:15.449Z,7.75
2022-10-10T09:43:44.104Z,7.60
2022-10-10T09:46:12.355Z,9.43
2022-10-10T09:48:43.043Z,8.70
2022-10-10T09:51:17.424Z,10.27
2022-10-10T09:53:49.923Z,9.18
2022-10-10T09:56:22.154Z,13.52
2022-10-10T09:58:53.258Z,11.70
2022-10-10T10:01:24.275Z,10.27
2022-10-10T10:04:27.790Z,9.25
2022-10-10T10:07:08.838Z,8.75
2022-10-10T10:09:39.601Z,10.50
2022-10-10T10:12:08.013Z,11.73
2022-10-10T10:14:39.508Z,10.23
2022-10-10T10:17:10.952Z,9.57
2022-10-10T10:19:41.788Z,12.85
2022-10-10T10:22:32.747Z,7.80
2022-10-10T10:25:33.129Z,7.78
2022-10-10T10:28:21.773Z,7.93
2022-10-10T10:30:53.239Z,7.97
2022-10-10T10:33:42.105Z,5.95
2022-10-10T10:36:28.394Z,7.78
2022-10-10T10:39:13.193Z,7.78
2022-10-10T10:41:52.639Z,8.98
2022-10-10T10:44:35.932Z,7.15
2022-10-10T10:47:27.464Z,8.70
2022-10-10T10:50:16.906Z,6.78
2022-10-10T10:52:59.142Z,6.32
2022-10-10T10:55:39.471Z,10.20
2022-10-10T11:01:57.017Z,7.43
2022-10-10T11:05:22.282Z,9.55
2022-10-10T11:07:58.532Z,7.65
2022-10-10T11:10:39.603Z,6.97
2022-10-10T11:13:20.404Z,6.90
2022-10-10T11:16:20.327Z,5.63
2022-10-10T11:18:53.675Z,5.18
2022-10-10T11:21:27.836Z,6.80
2022-10-10T11:24:03.708Z,8.98
2022-10-10T11:26:38.170Z,5.35
2022-10-10T11:29:14.551Z,7.47
2022-10-10T11:31:53.355Z,7.38
2022-10-10T11:34:28.342Z,5.05
2022-10-10T11:37:05.956Z,7.93
2022-10-10T11:39:42.851Z,9.35
2022-10-10T11:42:19.783Z,6.78
2022-10-10T11:44:56.906Z,5.50
2022-10-10T11:47:36.637Z,6.65
2022-10-10T11:50:14.690Z,6.30
2022-10-10T11:52:56.891Z,6.38
2022-10-10T11:55:37.480Z,4.88
2022-10-10T11:58:35.403Z,7.75
2022-10-10T12:01:14.548Z,7.45
2022-10-10T12:03:44.447Z,6.07
2022-10-10T12:06:25.144Z,6.47
2022-10-10T12:09:02.752Z,8.82
2022-10-10T12:11:38.643Z,7.72
2022-10-10T12:14:14.568Z,8.25
2022-10-10T12:16:43.109Z,6.32
2022-10-10T12:19:20.559Z,6.07
2022-10-10T12:21:59.471Z,8.02
2022-10-10T12:24:30.287Z,6.22
2022-10-10T12:27:44.396Z,8.07
2022-10-10T12:30:26.268Z,7.70
2022-10-10T12:32:55.517Z,6.25
2022-10-10T12:35:41.892Z,7.65
2022-10-10T12:38:21.236Z,5.25
2022-10-10T12:41:14.435Z,5.13
2022-10-10T12:43:52.356Z,7.13
2022-10-10T12:46:28.536Z,7.05
2022-10-10T12:49:16.997Z,5.05
2022-10-10T12:52:01.082Z,5.22
2022-10-10T12:54:38.328Z,5.40
2022-10-10T12:57:19.656Z,7.57
2022-10-10T12:59:48.359Z,6.03
2022-10-10T13:02:23.177Z,7.93
2022-10-10T13:04:55.251Z,8.05
2022-10-10T13:07:26.829Z,8.88
2022-10-10T13:10:06.272Z,9.05
2022-10-10T13:12:35.379Z,9.52
2022-10-10T13:15:03.644Z,6.65
2022-10-10T13:17:37.932Z,5.82
2022-10-10T13:20:26.770Z,6.97
2022-10-10T13:22:58.121Z,8.65
2022-10-10T13:25:27.224Z,7.43
2022-10-10T13:27:55.675Z,9.25
2022-10-10T13:30:26.529Z,6.00
2022-10-10T13:32:57.023Z,9.63
2022-10-10T13:35:28.517Z,12.35
2022-10-10T13:38:01.985Z,9.30
2022-10-10T13:40:30.367Z,7.07
2022-10-10T13:42:59.029Z,8.93
2022-10-10T13:45:38.993Z,10.57
2022-10-10T13:48:38.188Z,5.50
2022-10-10T13:51:10.915Z,6.25
2022-10-10T13:53:55.125Z,8.52
2022-10-10T13:56:38.185Z,5.18
2022-10-10T13:59:12.945Z,6.28
2022-10-10T14:01:46.687Z,4.95
2022-10-10T14:04:26.623Z,8.32
2022-10-10T14:07:04.273Z,7.53
2022-10-10T14:09:39.155Z,16.20
2022-10-10T14:12:17.737Z,7.43
2022-10-10T14:14:49.399Z,7.68
2022-10-10T14:17:18.122Z,9.35
2022-10-10T14:19:48.849Z,5.72
2022-10-10T14:22:17.434Z,5.78
2022-10-10T14:24:47.319Z,5.57
2022-10-10T14:27:24.426Z,9.23
2022-10-10T14:29:54.164Z,4.22
2022-10-10T14:32:22.997Z,8.10
2022-10-10T14:34:51.408Z,8.60
2022-10-10T14:37:23.917Z,6.82
2022-10-10T14:39:55.372Z,8.65
2022-10-10T14:42:25.804Z,6.00
2022-10-10T14:44:57.081Z,7.65
2022-10-10T14:47:26.604Z,6.65
2022-10-10T14:49:57.496Z,6.22
2022-10-10T14:52:25.764Z,10.85
2022-10-10T14:54:55.200Z,4.85
2022-10-10T14:57:23.383Z,8.45
2022-10-10T14:59:51.522Z,7.38
2022-10-10T15:02:21.912Z,5.68
2022-10-10T15:04:51.072Z,8.10
2022-10-10T15:07:20.058Z,5.53
2022-10-10T15:10:31.600Z,7.78
2022-10-10T15:12:43.758Z,7.10
2022-10-10T15:15:14.496Z,6.50
2022-10-10T15:17:43.497Z,7.10
2022-10-10T15:20:14.482Z,7.13
2022-10-10T15:22:45.926Z,12.98
2022-10-10T15:25:14.112Z,5.30
2022-10-10T15:27:43.500Z,4.78
2022-10-10T15:30:12.406Z,5.15
2022-10-10T15:32:43.367Z,5.55
2022-10-10T15:35:16.833Z,4.28
2022-10-10T15:37:46.318Z,5.45
2022-10-10T15:40:19.639Z,6.78
2022-10-10T15:42:50.199Z,5.20
2022-10-10T15:45:37.375Z,5.80
2022-10-10T15:48:07.100Z,6.65
2022-10-10T15:50:39.138Z,14.25
2022-10-10T15:53:07.278Z,10.15
2022-10-10T15:55:35.658Z,11.23
2022-10-10T15:58:05.297Z,16.60
2022-10-10T16:00:33.862Z,13.57
2022-10-10T16:03:02.145Z,17.23
2022-10-10T16:05:32.303Z,18.05
2022-10-10T16:08:00.826Z,20.98
2022-10-10T16:10:28.931Z,19.63
2022-10-10T16:12:57.190Z,16.75
2022-10-10T16:15:26.684Z,13.10
2022-10-10T16:17:54.908Z,12.00
2022-10-10T16:20:23.040Z,10.35
2022-10-10T16:22:51.305Z,13.00
2022-10-10T16:25:22.587Z,8.32
2022-10-10T16:27:52.570Z,12.48
2022-10-10T16:30:21.374Z,11.10
2022-10-10T16:32:51.386Z,8.73
2022-10-10T16:35:19.540Z,12.10
2022-10-10T16:37:47.946Z,10.35
2022-10-10T16:40:16.700Z,5.88
2022-10-10T16:42:45.035Z,8.23
2022-10-10T16:45:13.666Z,6.38
2022-10-10T16:47:41.833Z,6.38
2022-10-10T16:50:12.259Z,11.32
2022-10-10T16:52:40.454Z,9.65
2022-10-10T16:55:11.192Z,10.95
2022-10-10T16:57:40.169Z,9.95
2022-10-10T17:00:11.147Z,8.55
2022-10-10T17:02:42.168Z,8.32
2022-10-10T17:05:11.916Z,9.60
2022-10-10T17:07:40.083Z,14.60
2022-10-10T17:10:09.565Z,7.60
2022-10-10T17:12:37.718Z,6.82
2022-10-10T17:15:07.807Z,7.63
2022-10-10T17:17:36.883Z,8.73
2022-10-10T17:20:07.112Z,12.02
2022-10-10T17:22:37.330Z,11.15
2022-10-10T17:25:06.729Z,11.32
2022-10-10T17:27:35.863Z,9.20
2022-10-10T17:30:05.329Z,9.02
2022-10-10T17:32:33.563Z,8.15
2022-10-10T17:35:01.694Z,10.25
2022-10-10T17:37:29.943Z,16.60
2022-10-10T17:39:59.532Z,12.27
2022-10-10T17:42:27.697Z,13.75
2022-10-10T17:44:59.205Z,15.73
2022-10-10T17:47:27.700Z,16.63
2022-10-10T17:49:55.860Z,11.93
2022-10-10T17:52:24.836Z,16.77
2022-10-10T17:54:53.049Z,13.15
2022-10-10T17:57:22.613Z,11.60
2022-10-10T17:59:50.783Z,13.50
2022-10-10T18:02:20.115Z,17.00
2022-10-10T18:04:48.304Z,12.57
2022-10-10T18:07:18.497Z,16.90
2022-10-10T18:09:47.444Z,22.40
2022-10-10T18:12:15.669Z,17.65
2022-10-10T18:14:45.695Z,18.25
2022-10-10T18:17:16.021Z,19.63
2022-10-10T18:19:44.424Z,21.70
2022-10-10T18:22:12.699Z,20.67
2022-10-10T18:24:41.065Z,22.35
2022-10-10T18:27:09.261Z,20.80
2022-10-10T18:29:38.180Z,32.05
2022-10-10T18:32:07.997Z,23.77
2022-10-10T18:34:36.373Z,26.73
2022-10-10T18:37:06.504Z,93.45
2022-10-10T18:39:35.921Z,63.55
2022-10-10T18:42:04.528Z,27.15
2022-10-10T18:44:32.614Z,18.65
2022-10-10T18:47:02.837Z,20.58
2022-10-10T18:49:35.139Z,30.42
2022-10-10T18:52:03.878Z,34.80
2022-10-10T18:54:33.169Z,26.90
2022-10-10T18:57:02.515Z,25.20
2022-10-10T18:59:32.026Z,23.05
2022-10-10T19:02:00.507Z,23.67
2022-10-10T19:04:28.876Z,27.45
2022-10-10T19:06:58.502Z,36.67
2022-10-10T19:09:26.884Z,38.05
2022-10-10T19:11:55.414Z,32.58
2022-10-10T19:14:23.591Z,46.15
2022-10-10T19:16:51.884Z,35.80
2022-10-10T19:19:20.814Z,19.98
2022-10-10T19:21:50.487Z,19.15
2022-10-10T19:24:21.386Z,17.10
2022-10-10T19:26:57.160Z,16.60
2022-10-10T19:29:27.574Z,14.15
2022-10-10T19:31:56.917Z,19.75
2022-10-10T19:34:25.581Z,16.83
2022-10-10T19:36:54.515Z,20.35
2022-10-10T19:39:24.068Z,21.95
2022-10-10T19:41:52.440Z,25.33
2022-10-10T19:44:20.785Z,21.75
2022-10-10T19:46:48.942Z,22.50
2022-10-10T19:49:17.061Z,24.60
2022-10-10T19:51:45.317Z,25.80
2022-10-10T19:54:13.474Z,29.02
2022-10-10T19:56:42.944Z,24.38
2022-10-10T19:59:11.079Z,24.20
2022-10-10T20:01:39.259Z,26.20
2022-10-10T20:04:07.417Z,20.17
2022-10-10T20:06:35.717Z,19.40
2022-10-10T20:09:08.361Z,22.83
2022-10-10T20:11:39.641Z,20.95
2022-10-10T20:14:10.585Z,21.88
2022-10-10T20:16:39.023Z,25.92
2022-10-10T20:19:07.329Z,28.33
2022-10-10T20:21:36.220Z,25.98
2022-10-10T20:24:09.403Z,23.48
2022-10-10T20:26:38.464Z,23.88
2022-10-10T20:29:08.863Z,21.60
2022-10-10T20:31:38.646Z,17.73
2022-10-10T20:34:07.758Z,15.02
2022-10-10T20:36:36.435Z,16.15
2022-10-10T20:39:08.483Z,21.13
2022-10-10T20:41:39.374Z,21.05
2022-10-10T20:44:12.658Z,19.85
2022-10-10T20:46:48.691Z,19.40
2022-10-10T20:49:19.732Z,22.08
2022-10-10T20:51:50.876Z,23.77
2022-10-10T20:54:21.313Z,20.52
2022-10-10T20:56:50.144Z,26.10
2022-10-10T20:59:20.852Z,25.80
2022-10-10T21:01:49.115Z,26.25
2022-10-10T21:04:17.827Z,23.70
2022-10-10T21:06:46.327Z,25.45
2022-10-10T21:09:16.560Z,20.55
2022-10-10T21:11:48.717Z,31.48
2022-10-10T21:14:21.018Z,18.00
2022-10-10T21:16:50.511Z,24.90
2022-10-10T21:19:18.597Z,21.73
2022-10-10T21:21:46.913Z,21.92
2022-10-10T21:24:15.126Z,17.15
2022-10-10T21:26:45.331Z,18.48
2022-10-10T21:29:13.471Z,10.60
2022-10-10T21:31:43.312Z,16.08
2022-10-10T21:34:15.633Z,14.88
2022-10-10T21:36:43.821Z,16.33
2022-10-10T21:39:12.737Z,18.05
2022-10-10T21:41:41.412Z,20.20
2022-10-10T21:44:11.438Z,17.30
2022-10-10T21:46:39.544Z,19.43
2022-10-10T21:49:12.085Z,17.40
2022-10-10T21:51:42.953Z,17.25
2022-10-10T21:54:11.435Z,18.52
2022-10-10T21:56:40.395Z,20.17
2022-10-10T21:59:09.973Z,15.55
2022-10-10T22:01:38.333Z,19.35
2022-10-10T22:04:08.276Z,18.92
2022-10-10T22:06:36.634Z,17.60
2022-10-10T22:09:07.212Z,15.93
2022-10-10T22:11:35.836Z,16.42
2022-10-10T22:14:05.405Z,17.87
2022-10-10T22:16:34.648Z,13.05
2022-10-10T22:19:04.183Z,12.10
2022-10-10T22:21:34.964Z,13.55
2022-10-10T22:24:06.979Z,11.48
2022-10-10T22:26:36.095Z,14.68
2022-10-10T22:29:04.577Z,13.50
2022-10-10T22:31:35.729Z,10.93
2022-10-10T22:34:04.247Z,15.75
2022-10-10T22:36:34.505Z,12.20
2022-10-10T22:39:02.676Z,12.95
2022-10-10T22:41:30.731Z,14.82
2022-10-10T22:43:58.883Z,13.20
2022-10-10T22:46:27.089Z,15.43
2022-10-10T22:48:55.241Z,14.98
2022-10-10T22:51:23.326Z,11.40
2022-10-10T22:53:52.901Z,15.30
2022-10-10T22:56:22.551Z,12.10
2022-10-10T22:58:52.297Z,12.93
2022-10-10T23:01:24.426Z,13.40
2022-10-10T23:03:56.141Z,13.95
2022-10-10T23:06:24.475Z,12.48
2022-10-10T23:08:54.786Z,11.73
2022-10-10T23:11:22.919Z,11.20
2022-10-10T23:13:50.981Z,13.48
2022-10-10T23:16:19.100Z,12.70
2022-10-10T23:18:47.306Z,12.68
2022-10-10T23:21:15.463Z,13.93
2022-10-10T23:23:43.581Z,9.27
2022-10-10T23:26:14.828Z,11.82
2022-10-10T23:28:44.756Z,10.73
2022-10-10T23:31:14.328Z,15.07
2022-10-10T23:33:42.648Z,8.50
2022-10-10T23:36:14.496Z,13.82
2022-10-10T23:38:43.803Z,12.63
2022-10-10T23:41:14.427Z,16.25
2022-10-10T23:43:42.773Z,10.75
2022-10-10T23:46:11.224Z,13.80
2022-10-10T23:48:39.586Z,13.05
2022-10-10T23:51:07.949Z,15.95
2022-10-10T23:53:36.413Z,10.82
2022-10-10T23:56:05.069Z,10.43
2022-10-10T23:58:35.001Z,8.90
